createdAt,value
2024-03-19T00:02:23.757Z,92.60
2024-03-19T00:04:50.409Z,92.72
2024-03-19T00:07:16.949Z,92.45
2024-03-19T00:09:43.495Z,93.92
2024-03-19T00:12:10.152Z,94.12
2024-03-19T00:14:36.824Z,93.58
2024-03-19T00:17:03.645Z,93.04
2024-03-19T00:19:30.297Z,93.50
2024-03-19T00:21:56.831Z,95.73
2024-03-19T00:24:23.379Z,96.96
2024-03-19T00:26:49.934Z,95.79
2024-03-19T00:29:16.475Z,95.47
2024-03-19T00:31:43.208Z,95.04
2024-03-19T00:34:09.763Z,94.92
2024-03-19T00:36:36.302Z,95.08
2024-03-19T00:39:02.939Z,97.56
2024-03-19T00:41:29.503Z,98.40
2024-03-19T00:43:56.032Z,97.72
2024-03-19T00:46:22.595Z,98.17
2024-03-19T00:48:49.139Z,97.45
2024-03-19T00:51:15.689Z,96.98
2024-03-19T00:53:42.335Z,96.89
2024-03-19T00:56:08.982Z,97.99
2024-03-19T00:58:35.418Z,97.03
2024-03-19T01:01:01.961Z,98.30
2024-03-19T01:03:28.407Z,99.33
2024-03-19T01:05:55.058Z,99.10
2024-03-19T01:08:22.316Z,99.06
2024-03-19T01:10:48.867Z,98.29
2024-03-19T01:13:15.705Z,99.14
2024-03-19T01:15:42.257Z,98.49
2024-03-19T01:18:09.319Z,99.13
2024-03-19T01:20:35.955Z,98.80
2024-03-19T01:23:02.696Z,99.79
2024-03-19T01:25:29.365Z,99.93
2024-03-19T01:27:55.877Z,100.00
2024-03-19T01:30:22.556Z,99.92
2024-03-19T01:32:49.086Z,99.79
2024-03-19T01:35:15.837Z,99.99
2024-03-19T01:37:42.483Z,100.00
2024-03-19T01:40:09.649Z,100.00
2024-03-19T01:42:36.184Z,100.00
2024-03-19T01:45:12.269Z,100.00
2024-03-19T01:47:39.537Z,100.00
2024-03-19T01:50:07.857Z,100.00
2024-03-19T01:52:38.461Z,100.00
2024-03-19T01:55:06.805Z,100.00
2024-03-19T01:57:33.998Z,100.00
2024-03-19T02:00:01.437Z,100.00
2024-03-19T02:02:37.230Z,100.00
2024-03-19T02:05:06.510Z,100.00
2024-03-19T02:07:33.884Z,100.00
2024-03-19T02:10:00.856Z,100.00
2024-03-19T02:12:28.516Z,100.00
2024-03-19T02:14:56.288Z,100.00
2024-03-19T02:17:24.065Z,100.00
2024-03-19T02:19:50.912Z,100.00
2024-03-19T02:22:17.706Z,100.00
2024-03-19T02:24:44.921Z,100.00
2024-03-19T02:27:13.241Z,100.00
2024-03-19T02:29:39.769Z,100.00
2024-03-19T02:32:07.308Z,100.00
2024-03-19T02:34:33.952Z,100.00
2024-03-19T02:37:00.699Z,100.00
2024-03-19T02:39:27.360Z,100.00
2024-03-19T02:41:53.890Z,100.00
2024-03-19T02:44:20.745Z,100.00
2024-03-19T02:46:47.296Z,100.00
2024-03-19T02:49:13.938Z,100.00
2024-03-19T02:51:40.505Z,100.00
2024-03-19T02:54:07.036Z,100.00
2024-03-19T02:56:33.796Z,100.00
2024-03-19T02:59:00.430Z,100.00
2024-03-19T03:01:26.971Z,100.00
2024-03-19T03:03:53.634Z,100.00
2024-03-19T03:06:20.601Z,100.00
2024-03-19T03:08:47.319Z,100.00
2024-03-19T03:11:13.956Z,100.00
2024-03-19T03:13:40.522Z,100.00
2024-03-19T03:16:07.254Z,100.00
2024-03-19T03:18:33.790Z,100.00
2024-03-19T03:21:00.344Z,100.00
2024-03-19T03:23:27.187Z,100.00
2024-03-19T03:25:53.747Z,100.00
2024-03-19T03:28:20.378Z,100.00
2024-03-19T03:30:46.918Z,100.00
2024-03-19T03:33:13.696Z,100.00
2024-03-19T03:35:40.364Z,100.00
2024-03-19T03:38:06.862Z,100.00
2024-03-19T03:40:33.403Z,100.00
2024-03-19T03:43:03.342Z,100.00
2024-03-19T03:45:32.987Z,100.00
2024-03-19T03:47:59.606Z,100.00
2024-03-19T03:50:26.243Z,100.00
2024-03-19T03:52:52.883Z,100.00
2024-03-19T03:55:19.425Z,100.00
2024-03-19T03:57:46.148Z,100.00
2024-03-19T04:00:13.338Z,100.00
2024-03-19T04:02:43.502Z,100.00
2024-03-19T04:05:11.533Z,100.00
2024-03-19T04:07:39.936Z,100.00
2024-03-19T04:10:12.780Z,100.00
2024-03-19T04:12:40.278Z,100.00
2024-03-19T04:15:08.491Z,100.00
2024-03-19T04:17:35.503Z,100.00
2024-03-19T04:20:03.483Z,100.00
2024-03-19T04:22:30.116Z,100.00
2024-03-19T04:24:56.759Z,100.00
2024-03-19T04:27:23.301Z,100.00
2024-03-19T04:29:49.947Z,100.00
2024-03-19T04:32:16.584Z,100.00
2024-03-19T04:34:43.129Z,100.00
2024-03-19T04:37:09.785Z,100.00
2024-03-19T04:39:36.310Z,100.00
2024-03-19T04:42:02.854Z,100.00
2024-03-19T04:44:29.635Z,100.00
2024-03-19T04:46:56.332Z,100.00
2024-03-19T04:49:22.885Z,100.00
2024-03-19T04:51:49.439Z,100.00
2024-03-19T04:54:16.067Z,100.00
2024-03-19T04:56:42.779Z,100.00
2024-03-19T04:59:09.965Z,100.00
2024-03-19T05:01:36.613Z,100.00
2024-03-19T05:04:03.253Z,100.00
2024-03-19T05:06:29.791Z,100.00
2024-03-19T05:08:56.355Z,100.00
2024-03-19T05:11:22.974Z,100.00
2024-03-19T05:13:49.511Z,100.00
2024-03-19T05:16:16.055Z,100.00
2024-03-19T05:18:42.698Z,100.00
2024-03-19T05:21:09.337Z,100.00
2024-03-19T05:23:35.814Z,100.00
2024-03-19T05:26:03.240Z,100.00
2024-03-19T05:28:29.878Z,100.00
2024-03-19T05:30:56.412Z,100.00
2024-03-19T05:33:23.063Z,100.00
2024-03-19T05:35:49.812Z,100.00
2024-03-19T05:38:16.350Z,100.00
2024-03-19T05:40:43.299Z,100.00
2024-03-19T05:43:10.450Z,100.00
2024-03-19T05:45:37.028Z,100.00
2024-03-19T05:48:04.569Z,100.00
2024-03-19T05:50:32.138Z,100.00
2024-03-19T05:52:58.678Z,100.00
2024-03-19T05:55:25.426Z,100.00
2024-03-19T05:57:52.067Z,100.00
2024-03-19T06:00:19.117Z,100.00
2024-03-19T06:02:45.563Z,100.00
2024-03-19T06:05:12.387Z,100.00
2024-03-19T06:07:39.033Z,100.00
2024-03-19T06:10:07.033Z,100.00
2024-03-19T06:12:33.639Z,100.00
2024-03-19T06:15:00.374Z,100.00
2024-03-19T06:17:27.148Z,100.00
2024-03-19T06:19:53.678Z,100.00
2024-03-19T06:22:20.310Z,100.00
2024-03-19T06:24:46.850Z,100.00
2024-03-19T06:27:13.395Z,100.00
2024-03-19T06:29:40.038Z,100.00
2024-03-19T06:32:07.391Z,100.00
2024-03-19T06:34:33.938Z,100.00
2024-03-19T06:37:00.575Z,100.00
2024-03-19T06:39:27.212Z,100.00
2024-03-19T06:41:53.757Z,100.00
2024-03-19T06:44:20.401Z,100.00
2024-03-19T06:46:47.157Z,100.00
2024-03-19T06:49:13.689Z,100.00
2024-03-19T06:51:40.536Z,100.00
2024-03-19T06:54:07.136Z,100.00
2024-03-19T06:56:33.720Z,100.00
2024-03-19T06:59:00.261Z,100.00
2024-03-19T07:01:26.910Z,100.00
2024-03-19T07:04:05.909Z,100.00
2024-03-19T07:06:34.014Z,100.00
2024-03-19T07:09:00.594Z,100.00
2024-03-19T07:11:27.190Z,100.00
2024-03-19T07:13:53.730Z,100.00
2024-03-19T07:16:20.463Z,100.00
2024-03-19T07:18:47.639Z,100.00
2024-03-19T07:21:14.272Z,100.00
2024-03-19T07:23:40.808Z,100.00
2024-03-19T07:26:07.452Z,100.00
2024-03-19T07:28:33.986Z,100.00
2024-03-19T07:31:00.521Z,100.00
2024-03-19T07:33:27.126Z,100.00
2024-03-19T07:35:53.845Z,100.00
2024-03-19T07:38:20.559Z,100.00
2024-03-19T07:40:47.869Z,100.00
2024-03-19T07:43:14.555Z,100.00
2024-03-19T07:45:41.100Z,100.00
2024-03-19T07:48:08.102Z,100.00
2024-03-19T07:50:34.734Z,100.00
2024-03-19T07:53:02.720Z,100.00
2024-03-19T07:55:29.353Z,100.00
2024-03-19T07:57:55.901Z,100.00
2024-03-19T08:00:22.547Z,100.00
2024-03-19T08:02:49.278Z,100.00
2024-03-19T08:05:15.964Z,100.00
2024-03-19T08:07:42.680Z,100.00
2024-03-19T08:10:09.397Z,100.00
2024-03-19T08:12:35.961Z,100.00
2024-03-19T08:15:06.604Z,99.97
2024-03-19T08:17:33.238Z,99.91
2024-03-19T08:20:00.629Z,100.00
2024-03-19T08:22:27.402Z,100.00
2024-03-19T08:24:53.836Z,100.00
2024-03-19T08:27:20.845Z,100.00
2024-03-19T08:29:53.524Z,99.45
2024-03-19T08:32:20.184Z,99.94
2024-03-19T08:34:46.645Z,99.28
2024-03-19T08:37:13.342Z,98.97
2024-03-19T08:39:39.805Z,98.42
2024-03-19T08:42:06.978Z,97.55
2024-03-19T08:44:34.934Z,97.32
2024-03-19T08:47:01.348Z,97.04
2024-03-19T08:49:27.776Z,93.11
2024-03-19T08:51:54.690Z,94.10
2024-03-19T08:54:21.286Z,93.64
2024-03-19T08:56:47.951Z,92.36
2024-03-19T08:59:14.416Z,89.07
2024-03-19T09:01:41.358Z,90.55
2024-03-19T09:04:07.898Z,89.69
2024-03-19T09:06:34.417Z,90.86
2024-03-19T09:09:00.900Z,91.53
2024-03-19T09:11:27.626Z,87.15
2024-03-19T09:13:54.183Z,88.35
2024-03-19T09:16:20.803Z,86.14
2024-03-19T09:18:47.330Z,86.58
2024-03-19T09:21:13.794Z,85.63
2024-03-19T09:23:40.709Z,85.70
2024-03-19T09:26:07.421Z,84.37
2024-03-19T09:28:34.204Z,82.05
2024-03-19T09:31:00.942Z,81.19
2024-03-19T09:33:28.311Z,78.17
2024-03-19T09:35:55.397Z,76.08
2024-03-19T09:38:21.980Z,76.24
2024-03-19T09:40:54.177Z,79.83
2024-03-19T09:43:23.976Z,74.04
2024-03-19T09:45:51.693Z,75.79
2024-03-19T09:48:20.257Z,74.67
2024-03-19T09:50:48.353Z,71.66
2024-03-19T09:53:20.045Z,70.95
2024-03-19T09:55:47.468Z,69.82
2024-03-19T09:58:15.031Z,69.16
2024-03-19T10:00:45.459Z,69.65
2024-03-19T10:03:12.202Z,70.87
2024-03-19T10:05:38.746Z,67.81
2024-03-19T10:08:06.975Z,70.32
2024-03-19T10:10:34.286Z,68.58
2024-03-19T10:13:01.634Z,69.22
2024-03-19T10:15:28.193Z,69.29
2024-03-19T10:17:54.859Z,71.05
2024-03-19T10:20:22.229Z,70.00
2024-03-19T10:22:51.215Z,68.08
2024-03-19T10:25:17.836Z,68.20
2024-03-19T10:27:49.029Z,68.79
2024-03-19T10:30:18.212Z,71.31
2024-03-19T10:32:46.894Z,67.21
2024-03-19T10:35:18.905Z,63.10
2024-03-19T10:37:50.623Z,61.68
2024-03-19T10:40:19.322Z,62.82
2024-03-19T10:42:47.189Z,64.30
2024-03-19T10:45:24.311Z,65.03
2024-03-19T10:47:53.396Z,65.97
2024-03-19T10:50:21.559Z,62.87
2024-03-19T10:52:54.341Z,62.65
2024-03-19T10:55:21.522Z,62.57
2024-03-19T10:57:48.391Z,61.18
2024-03-19T11:00:20.720Z,59.89
2024-03-19T11:02:48.395Z,59.75
2024-03-19T11:05:21.005Z,59.86
2024-03-19T11:07:51.514Z,60.84
2024-03-19T11:10:39.151Z,60.34
2024-03-19T11:13:18.668Z,60.12
2024-03-19T11:15:46.249Z,60.58
2024-03-19T11:18:12.800Z,58.87
2024-03-19T11:20:42.000Z,58.04
2024-03-19T11:23:13.477Z,58.28
2024-03-19T11:25:40.138Z,57.96
2024-03-19T11:28:19.240Z,59.06
2024-03-19T11:30:53.204Z,61.46
2024-03-19T11:33:21.337Z,62.23
2024-03-19T11:35:48.079Z,59.80
2024-03-19T11:38:15.476Z,58.79
2024-03-19T11:40:43.354Z,57.82
2024-03-19T11:43:17.994Z,56.36
2024-03-19T11:45:49.404Z,55.91
2024-03-19T11:48:18.108Z,55.05
2024-03-19T11:50:48.641Z,55.59
2024-03-19T11:53:18.884Z,56.02
2024-03-19T11:55:45.939Z,55.97
2024-03-19T11:58:13.296Z,55.06
2024-03-19T12:00:40.447Z,54.91
2024-03-19T12:03:07.405Z,55.39
2024-03-19T12:05:34.496Z,54.25
2024-03-19T12:08:02.340Z,53.24
2024-03-19T12:10:29.042Z,53.98
2024-03-19T12:12:56.650Z,55.36
2024-03-19T12:15:25.403Z,54.70
2024-03-19T12:17:53.994Z,54.87
2024-03-19T12:20:21.807Z,51.70
2024-03-19T12:22:50.636Z,50.21
2024-03-19T12:25:21.755Z,50.98
2024-03-19T12:27:48.616Z,50.79
2024-03-19T12:30:24.476Z,51.86
2024-03-19T12:32:56.512Z,51.81
2024-03-19T12:35:25.610Z,51.00
2024-03-19T12:37:53.921Z,50.50
2024-03-19T12:40:20.699Z,50.80
2024-03-19T12:42:48.239Z,51.23
2024-03-19T12:45:15.901Z,51.13
2024-03-19T12:47:43.282Z,51.67
2024-03-19T12:50:10.729Z,50.27
2024-03-19T12:52:37.793Z,50.48
2024-03-19T12:55:04.901Z,50.83
2024-03-19T12:57:36.615Z,52.24
2024-03-19T13:00:05.010Z,51.85
2024-03-19T13:02:31.743Z,49.56
2024-03-19T13:04:58.388Z,49.69
2024-03-19T13:07:24.949Z,49.98
2024-03-19T13:09:51.568Z,50.95
2024-03-19T13:12:18.315Z,50.75
2024-03-19T13:14:45.080Z,51.29
2024-03-19T13:17:11.705Z,51.74
2024-03-19T13:19:38.259Z,51.80
2024-03-19T13:22:04.902Z,52.15
2024-03-19T13:24:31.638Z,52.14
2024-03-19T13:26:58.690Z,51.79
2024-03-19T13:29:25.193Z,51.57
2024-03-19T13:31:51.774Z,51.94
2024-03-19T13:34:18.419Z,52.29
2024-03-19T13:36:44.965Z,52.33
2024-03-19T13:39:22.256Z,52.29
2024-03-19T13:41:52.832Z,51.95
2024-03-19T13:44:19.449Z,52.65
2024-03-19T13:46:45.984Z,52.60
2024-03-19T13:49:24.604Z,51.93
2024-03-19T13:51:51.181Z,51.73
2024-03-19T13:54:17.718Z,52.17
2024-03-19T13:56:44.257Z,52.48
2024-03-19T13:59:10.797Z,51.87
2024-03-19T14:01:37.542Z,51.74
2024-03-19T14:04:04.197Z,51.42
2024-03-19T14:06:30.939Z,51.18
2024-03-19T14:08:57.481Z,51.92
2024-03-19T14:11:25.149Z,52.13
2024-03-19T14:13:51.693Z,52.01
2024-03-19T14:16:18.158Z,51.83
2024-03-19T14:18:44.677Z,50.73
2024-03-19T14:21:11.275Z,51.29
2024-03-19T14:23:40.577Z,51.52
2024-03-19T14:26:07.017Z,50.71
2024-03-19T14:28:33.634Z,50.76
2024-03-19T14:31:00.154Z,50.62
2024-03-19T14:33:26.816Z,50.62
2024-03-19T14:35:53.648Z,50.22
2024-03-19T14:38:20.196Z,49.50
2024-03-19T14:40:47.043Z,48.53
2024-03-19T14:43:13.718Z,47.45
2024-03-19T14:45:41.652Z,46.49
2024-03-19T14:48:14.145Z,46.41
2024-03-19T14:50:41.164Z,43.72
2024-03-19T14:53:07.704Z,43.59
2024-03-19T14:55:34.238Z,42.44
2024-03-19T14:58:00.787Z,41.91
2024-03-19T15:00:27.427Z,41.80
2024-03-19T15:02:53.956Z,42.37
2024-03-19T15:05:20.502Z,43.11
2024-03-19T15:07:46.987Z,43.37
2024-03-19T15:10:13.582Z,42.42
2024-03-19T15:12:40.229Z,41.04
2024-03-19T15:15:07.441Z,41.12
2024-03-19T15:17:34.253Z,41.36
2024-03-19T15:20:00.810Z,40.39
2024-03-19T15:22:27.298Z,40.62
2024-03-19T15:24:53.840Z,40.06
2024-03-19T15:27:20.481Z,40.80
2024-03-19T15:29:55.862Z,41.71
2024-03-19T15:32:32.365Z,41.62
2024-03-19T15:35:07.021Z,40.88
2024-03-19T15:37:33.667Z,41.56
2024-03-19T15:40:00.412Z,42.54
2024-03-19T15:42:26.955Z,43.99
2024-03-19T15:44:53.608Z,44.98
2024-03-19T15:49:53.733Z,46.58
2024-03-19T15:52:20.381Z,47.41
2024-03-19T15:54:47.108Z,48.04
2024-03-19T15:57:13.754Z,48.28
2024-03-19T15:59:40.295Z,48.20
2024-03-19T16:02:10.252Z,48.68
2024-03-19T16:04:37.069Z,49.64
2024-03-19T16:07:04.128Z,49.88
2024-03-19T16:09:30.768Z,50.52
2024-03-19T16:11:58.846Z,50.75
2024-03-19T16:14:25.396Z,50.88
2024-03-19T16:16:51.975Z,51.23
2024-03-19T16:19:18.583Z,51.70
2024-03-19T16:21:45.226Z,52.33
2024-03-19T16:24:11.821Z,52.21
2024-03-19T16:26:38.361Z,52.52
2024-03-19T16:29:04.939Z,53.11
2024-03-19T16:31:31.507Z,52.89
2024-03-19T16:33:58.150Z,53.00
2024-03-19T16:36:24.695Z,52.95
2024-03-19T16:38:51.233Z,52.66
2024-03-19T16:41:17.882Z,53.14
2024-03-19T16:43:44.429Z,53.24
2024-03-19T16:46:11.089Z,53.32
2024-03-19T16:48:37.644Z,53.79
2024-03-19T16:51:04.289Z,54.56
2024-03-19T16:53:30.923Z,54.46
2024-03-19T16:55:58.180Z,54.66
2024-03-19T16:58:24.975Z,54.40
2024-03-19T17:00:51.461Z,54.81
2024-03-19T17:03:18.013Z,54.78
2024-03-19T17:05:44.548Z,55.00
2024-03-19T17:08:11.080Z,55.12
2024-03-19T17:10:37.727Z,55.09
2024-03-19T17:13:04.783Z,55.13
2024-03-19T17:15:31.258Z,55.24
2024-03-19T17:17:58.160Z,55.15
2024-03-19T17:20:24.704Z,55.61
2024-03-19T17:22:51.660Z,56.10
2024-03-19T17:25:18.344Z,56.30
2024-03-19T17:27:44.935Z,56.41
2024-03-19T17:30:12.033Z,56.27
2024-03-19T17:32:38.620Z,56.77
2024-03-19T17:35:05.526Z,56.72
2024-03-19T17:37:32.121Z,57.34
2024-03-19T17:39:58.651Z,56.97
2024-03-19T17:42:25.299Z,57.61
2024-03-19T17:44:51.834Z,58.17
2024-03-19T17:47:18.393Z,57.92
2024-03-19T17:49:45.037Z,58.11
2024-03-19T17:52:11.610Z,58.64
2024-03-19T17:54:38.120Z,58.69
2024-03-19T17:57:05.062Z,58.91
2024-03-19T17:59:31.601Z,59.44
2024-03-19T18:01:58.242Z,60.54
2024-03-19T18:04:24.814Z,60.92
2024-03-19T18:06:51.527Z,60.42
2024-03-19T18:09:18.070Z,60.69
2024-03-19T18:11:44.763Z,60.40
2024-03-19T18:14:11.259Z,60.45
2024-03-19T18:16:37.800Z,60.85
2024-03-19T18:19:04.534Z,61.18
2024-03-19T18:21:31.113Z,61.72
2024-03-19T18:23:57.651Z,61.95
2024-03-19T18:26:24.252Z,62.66
2024-03-19T18:28:50.798Z,64.83
2024-03-19T18:31:17.235Z,65.99
2024-03-19T18:33:43.884Z,69.93
2024-03-19T18:36:10.461Z,67.67
2024-03-19T18:38:37.016Z,67.72
2024-03-19T18:41:03.597Z,67.86
2024-03-19T18:43:30.140Z,69.19
2024-03-19T18:45:56.680Z,69.26
2024-03-19T18:48:23.339Z,68.73
2024-03-19T18:50:49.882Z,68.60
2024-03-19T18:53:16.727Z,67.12
2024-03-19T18:55:43.268Z,67.20
2024-03-19T18:58:10.057Z,67.98
2024-03-19T19:00:36.572Z,66.94
2024-03-19T19:03:03.304Z,66.46
2024-03-19T19:05:29.843Z,66.37
2024-03-19T19:07:56.518Z,66.33
2024-03-19T19:10:23.124Z,66.94
2024-03-19T19:12:50.073Z,68.01
2024-03-19T19:15:16.732Z,67.40
2024-03-19T19:17:43.266Z,68.68
2024-03-19T19:20:10.101Z,68.36
2024-03-19T19:22:36.647Z,69.60
2024-03-19T19:25:03.390Z,68.66
2024-03-19T19:27:30.031Z,68.17
2024-03-19T19:29:56.679Z,67.92
2024-03-19T19:32:23.419Z,68.00
2024-03-19T19:34:50.059Z,68.10
2024-03-19T19:37:17.011Z,68.28
2024-03-19T19:39:43.650Z,68.30
2024-03-19T19:42:10.822Z,68.65
2024-03-19T19:44:37.467Z,70.95
2024-03-19T19:47:05.314Z,70.72
2024-03-19T19:49:34.628Z,69.82
2024-03-19T19:52:01.173Z,69.57
2024-03-19T19:54:27.715Z,70.86
2024-03-19T19:56:54.265Z,71.38
2024-03-19T19:59:21.421Z,70.99
2024-03-19T20:01:48.173Z,70.60
2024-03-19T20:04:15.229Z,70.56
2024-03-19T20:06:41.878Z,71.40
2024-03-19T20:09:08.725Z,70.39
2024-03-19T20:11:35.267Z,69.93
2024-03-19T20:14:01.803Z,70.11
2024-03-19T20:16:28.376Z,70.06
2024-03-19T20:18:54.990Z,70.17
2024-03-19T20:21:21.541Z,70.57
2024-03-19T20:23:48.286Z,70.78
2024-03-19T20:26:14.833Z,71.96
2024-03-19T20:28:41.376Z,72.60
2024-03-19T20:31:08.022Z,72.53
2024-03-19T20:33:34.562Z,72.05
2024-03-19T20:36:01.223Z,72.65
2024-03-19T20:38:27.770Z,72.13
2024-03-19T20:40:54.393Z,73.14
2024-03-19T20:43:20.935Z,73.49
2024-03-19T20:45:48.313Z,73.42
2024-03-19T20:48:14.881Z,73.31
2024-03-19T20:50:41.410Z,76.19
2024-03-19T20:53:07.959Z,89.10
2024-03-19T20:55:34.528Z,84.23
2024-03-19T20:58:01.341Z,81.54
2024-03-19T21:00:28.191Z,80.28
2024-03-19T21:02:54.761Z,81.80
2024-03-19T21:05:21.405Z,80.77
2024-03-19T21:07:48.016Z,79.79
2024-03-19T21:10:14.558Z,81.06
2024-03-19T21:12:41.098Z,83.87
2024-03-19T21:15:08.256Z,83.13
2024-03-19T21:17:34.810Z,82.29
2024-03-19T21:20:01.644Z,80.75
2024-03-19T21:22:28.293Z,80.65
2024-03-19T21:24:55.151Z,79.88
2024-03-19T21:27:21.707Z,79.88
2024-03-19T21:29:48.435Z,80.02
2024-03-19T21:32:15.388Z,80.29
2024-03-19T21:34:42.030Z,81.14
2024-03-19T21:37:08.574Z,81.38
2024-03-19T21:39:35.322Z,82.33
2024-03-19T21:42:01.971Z,81.36
2024-03-19T21:44:28.552Z,81.66
2024-03-19T21:46:55.050Z,80.78
2024-03-19T21:49:21.637Z,81.32
2024-03-19T21:51:48.187Z,81.21
2024-03-19T21:54:15.899Z,81.09
2024-03-19T21:56:43.621Z,81.65
2024-03-19T21:59:10.467Z,81.62
2024-03-19T22:01:37.007Z,81.98
2024-03-19T22:04:03.864Z,82.13
2024-03-19T22:06:30.497Z,82.78
2024-03-19T22:08:57.034Z,89.34
2024-03-19T22:11:23.897Z,90.28
2024-03-19T22:13:50.430Z,87.06
2024-03-19T22:16:17.174Z,84.46
2024-03-19T22:18:43.920Z,83.45
2024-03-19T22:21:10.460Z,83.92
2024-03-19T22:23:37.002Z,84.68
2024-03-19T22:26:03.754Z,86.66
2024-03-19T22:28:30.446Z,86.44
2024-03-19T22:30:56.936Z,87.32
2024-03-19T22:33:23.701Z,89.53
2024-03-19T22:35:50.327Z,87.84
2024-03-19T22:38:16.974Z,86.00
2024-03-19T22:40:44.128Z,85.88
2024-03-19T22:43:10.665Z,84.67
2024-03-19T22:45:37.199Z,84.73
2024-03-19T22:50:40.535Z,89.59
2024-03-19T22:53:07.028Z,86.81
2024-03-19T22:55:33.537Z,87.88
2024-03-19T22:58:00.071Z,86.72
2024-03-19T23:00:26.610Z,85.46
2024-03-19T23:02:53.252Z,85.30
2024-03-19T23:05:19.901Z,85.13
2024-03-19T23:07:46.525Z,85.61
2024-03-19T23:10:13.403Z,84.88
2024-03-19T23:12:43.322Z,85.13
2024-03-19T23:15:11.956Z,85.19
2024-03-19T23:17:38.561Z,85.24
2024-03-19T23:20:05.933Z,85.13
2024-03-19T23:22:33.204Z,84.99
2024-03-19T23:25:00.032Z,84.99
2024-03-19T23:27:26.578Z,85.57
2024-03-19T23:29:53.114Z,85.67
2024-03-19T23:32:19.715Z,85.53
2024-03-19T23:34:46.819Z,85.79
2024-03-19T23:40:32.544Z,86.71
2024-03-19T23:42:59.098Z,85.88
2024-03-19T23:45:25.732Z,85.55
2024-03-19T23:47:52.581Z,88.94
2024-03-19T23:50:19.343Z,90.03
2024-03-19T23:52:45.908Z,90.77
2024-03-19T23:55:12.736Z,88.74
2024-03-19T23:57:39.196Z,87.69
